sensor_id;sensor_type;location;lat;lon;timestamp;P1;durP1;ratioP1;P2;durP2;ratioP2
76953;SDS011;65893;51.698;-0.292;2024-03-22T00:00:45;16.05;;;7.97;;
76953;SDS011;65893;51.698;-0.292;2024-03-22T00:03:13;18.08;;;8.30;;
76953;SDS011;65893;51.698;-0.292;2024-03-22T00:05:40;15.23;;;7.22;;
76953;SDS011;65893;51.698;-0.292;2024-03-22T00:08:06;19.30;;;8.23;;
76953;SDS011;65893;51.698;-0.292;2024-03-22T00:10:34;17.08;;;8.02;;
76953;SDS011;65893;51.698;-0.292;2024-03-22T00:13:00;24.77;;;9.45;;
76953;SDS011;65893;51.698;-0.292;2024-03-22T00:15:26;16.10;;;7.85;;
76953;SDS011;65893;51.698;-0.292;2024-03-22T00:17:52;20.13;;;7.68;;
76953;SDS011;65893;51.698;-0.292;2024-03-22T00:20:18;14.40;;;7.38;;
76953;SDS011;65893;51.698;-0.292;2024-03-22T00:22:46;21.48;;;8.10;;
76953;SDS011;65893;51.698;-0.292;2024-03-22T00:25:12;17.23;;;7.10;;
76953;SDS011;65893;51.698;-0.292;2024-03-22T00:27:38;18.20;;;8.90;;
76953;SDS011;65893;51.698;-0.292;2024-03-22T00:30:04;20.15;;;7.15;;
76953;SDS011;65893;51.698;-0.292;2024-03-22T00:32:30;15.70;;;7.00;;
76953;SDS011;65893;51.698;-0.292;2024-03-22T00:34:56;20.42;;;7.55;;
76953;SDS011;65893;51.698;-0.292;2024-03-22T00:37:22;17.48;;;8.57;;
76953;SDS011;65893;51.698;-0.292;2024-03-22T00:39:48;16.20;;;6.55;;
76953;SDS011;65893;51.698;-0.292;2024-03-22T00:42:14;17.05;;;7.57;;
76953;SDS011;65893;51.698;-0.292;2024-03-22T00:44:40;17.50;;;7.35;;
76953;SDS011;65893;51.698;-0.292;2024-03-22T00:47:07;19.25;;;7.60;;
76953;SDS011;65893;51.698;-0.292;2024-03-22T00:49:33;14.95;;;7.43;;
76953;SDS011;65893;51.698;-0.292;2024-03-22T00:51:59;19.80;;;8.05;;
76953;SDS011;65893;51.698;-0.292;2024-03-22T00:54:25;17.33;;;8.10;;
76953;SDS011;65893;51.698;-0.292;2024-03-22T00:56:52;13.45;;;6.63;;
76953;SDS011;65893;51.698;-0.292;2024-03-22T00:59:18;15.82;;;8.25;;
76953;SDS011;65893;51.698;-0.292;2024-03-22T01:01:44;22.45;;;8.10;;
76953;SDS011;65893;51.698;-0.292;2024-03-22T01:04:11;22.25;;;9.25;;
76953;SDS011;65893;51.698;-0.292;2024-03-22T01:06:37;16.48;;;7.97;;
76953;SDS011;65893;51.698;-0.292;2024-03-22T01:09:04;16.70;;;8.10;;
76953;SDS011;65893;51.698;-0.292;2024-03-22T01:11:31;14.73;;;7.20;;
76953;SDS011;65893;51.698;-0.292;2024-03-22T01:13:57;22.02;;;8.95;;
76953;SDS011;65893;51.698;-0.292;2024-03-22T01:16:23;17.50;;;8.27;;
76953;SDS011;65893;51.698;-0.292;2024-03-22T01:18:49;19.52;;;8.82;;
76953;SDS011;65893;51.698;-0.292;2024-03-22T01:21:15;17.40;;;8.35;;
76953;SDS011;65893;51.698;-0.292;2024-03-22T01:23:41;19.48;;;8.30;;
76953;SDS011;65893;51.698;-0.292;2024-03-22T01:26:07;19.83;;;8.63;;
76953;SDS011;65893;51.698;-0.292;2024-03-22T01:28:33;19.63;;;9.88;;
76953;SDS011;65893;51.698;-0.292;2024-03-22T01:30:59;19.17;;;9.30;;
76953;SDS011;65893;51.698;-0.292;2024-03-22T01:33:25;19.50;;;9.45;;
76953;SDS011;65893;51.698;-0.292;2024-03-22T01:35:51;20.25;;;9.82;;
76953;SDS011;65893;51.698;-0.292;2024-03-22T01:38:17;23.17;;;10.85;;
76953;SDS011;65893;51.698;-0.292;2024-03-22T01:40:44;17.33;;;8.93;;
76953;SDS011;65893;51.698;-0.292;2024-03-22T01:43:10;19.00;;;9.55;;
76953;SDS011;65893;51.698;-0.292;2024-03-22T01:45:36;18.42;;;9.27;;
76953;SDS011;65893;51.698;-0.292;2024-03-22T01:48:04;21.83;;;10.60;;
76953;SDS011;65893;51.698;-0.292;2024-03-22T01:50:30;21.75;;;9.73;;
76953;SDS011;65893;51.698;-0.292;2024-03-22T01:52:56;22.35;;;9.32;;
76953;SDS011;65893;51.698;-0.292;2024-03-22T01:55:23;21.65;;;11.10;;
76953;SDS011;65893;51.698;-0.292;2024-03-22T01:57:54;19.52;;;11.27;;
76953;SDS011;65893;51.698;-0.292;2024-03-22T02:00:20;19.60;;;10.13;;
76953;SDS011;65893;51.698;-0.292;2024-03-22T02:02:46;20.58;;;10.93;;
76953;SDS011;65893;51.698;-0.292;2024-03-22T02:05:13;21.17;;;9.70;;
76953;SDS011;65893;51.698;-0.292;2024-03-22T02:07:40;16.85;;;9.27;;
76953;SDS011;65893;51.698;-0.292;2024-03-22T02:10:07;22.73;;;10.85;;
76953;SDS011;65893;51.698;-0.292;2024-03-22T02:12:35;22.98;;;10.30;;
76953;SDS011;65893;51.698;-0.292;2024-03-22T02:15:02;26.67;;;11.93;;
76953;SDS011;65893;51.698;-0.292;2024-03-22T02:17:28;23.85;;;11.15;;
76953;SDS011;65893;51.698;-0.292;2024-03-22T02:19:54;21.50;;;10.43;;
76953;SDS011;65893;51.698;-0.292;2024-03-22T02:22:22;21.63;;;10.55;;
76953;SDS011;65893;51.698;-0.292;2024-03-22T02:24:49;23.83;;;10.32;;
76953;SDS011;65893;51.698;-0.292;2024-03-22T02:27:15;22.45;;;10.95;;
76953;SDS011;65893;51.698;-0.292;2024-03-22T02:29:41;23.23;;;11.40;;
76953;SDS011;65893;51.698;-0.292;2024-03-22T02:32:07;25.33;;;11.65;;
76953;SDS011;65893;51.698;-0.292;2024-03-22T02:34:33;25.20;;;11.63;;
76953;SDS011;65893;51.698;-0.292;2024-03-22T02:36:59;24.15;;;10.73;;
76953;SDS011;65893;51.698;-0.292;2024-03-22T02:39:26;21.35;;;10.50;;
76953;SDS011;65893;51.698;-0.292;2024-03-22T02:41:53;21.73;;;11.30;;
76953;SDS011;65893;51.698;-0.292;2024-03-22T02:44:19;23.23;;;10.93;;
76953;SDS011;65893;51.698;-0.292;2024-03-22T02:46:46;23.52;;;11.15;;
76953;SDS011;65893;51.698;-0.292;2024-03-22T02:49:12;21.15;;;10.55;;
76953;SDS011;65893;51.698;-0.292;2024-03-22T02:51:38;27.27;;;11.13;;
76953;SDS011;65893;51.698;-0.292;2024-03-22T02:54:04;19.67;;;10.68;;
76953;SDS011;65893;51.698;-0.292;2024-03-22T02:56:30;22.67;;;10.23;;
76953;SDS011;65893;51.698;-0.292;2024-03-22T02:58:56;22.58;;;11.30;;
76953;SDS011;65893;51.698;-0.292;2024-03-22T03:01:22;25.52;;;10.95;;
76953;SDS011;65893;51.698;-0.292;2024-03-22T03:03:49;24.58;;;10.65;;
76953;SDS011;65893;51.698;-0.292;2024-03-22T03:06:15;24.85;;;11.25;;
76953;SDS011;65893;51.698;-0.292;2024-03-22T03:08:43;21.95;;;11.20;;
76953;SDS011;65893;51.698;-0.292;2024-03-22T03:11:09;19.40;;;10.27;;
76953;SDS011;65893;51.698;-0.292;2024-03-22T03:13:35;21.90;;;10.20;;
76953;SDS011;65893;51.698;-0.292;2024-03-22T03:16:01;26.38;;;12.30;;
76953;SDS011;65893;51.698;-0.292;2024-03-22T03:18:27;21.42;;;11.20;;
76953;SDS011;65893;51.698;-0.292;2024-03-22T03:20:53;21.63;;;10.65;;
76953;SDS011;65893;51.698;-0.292;2024-03-22T03:23:19;21.35;;;10.02;;
76953;SDS011;65893;51.698;-0.292;2024-03-22T03:25:45;20.75;;;9.50;;
76953;SDS011;65893;51.698;-0.292;2024-03-22T03:28:11;19.27;;;9.45;;
76953;SDS011;65893;51.698;-0.292;2024-03-22T03:30:38;20.23;;;9.80;;
76953;SDS011;65893;51.698;-0.292;2024-03-22T03:33:04;18.88;;;9.55;;
76953;SDS011;65893;51.698;-0.292;2024-03-22T03:35:30;16.38;;;8.88;;
76953;SDS011;65893;51.698;-0.292;2024-03-22T03:37:56;19.77;;;9.77;;
76953;SDS011;65893;51.698;-0.292;2024-03-22T03:40:23;21.45;;;8.73;;
76953;SDS011;65893;51.698;-0.292;2024-03-22T03:42:53;17.13;;;8.43;;
76953;SDS011;65893;51.698;-0.292;2024-03-22T03:45:19;16.63;;;7.85;;
76953;SDS011;65893;51.698;-0.292;2024-03-22T03:47:46;16.17;;;7.10;;
76953;SDS011;65893;51.698;-0.292;2024-03-22T03:50:12;16.10;;;7.55;;
76953;SDS011;65893;51.698;-0.292;2024-03-22T03:52:38;14.80;;;7.18;;
76953;SDS011;65893;51.698;-0.292;2024-03-22T03:55:04;18.67;;;7.40;;
76953;SDS011;65893;51.698;-0.292;2024-03-22T03:57:30;14.73;;;6.82;;
76953;SDS011;65893;51.698;-0.292;2024-03-22T03:59:56;14.27;;;6.57;;
76953;SDS011;65893;51.698;-0.292;2024-03-22T04:02:22;14.57;;;7.45;;
76953;SDS011;65893;51.698;-0.292;2024-03-22T04:04:51;15.90;;;6.75;;
76953;SDS011;65893;51.698;-0.292;2024-03-22T04:07:17;19.70;;;6.13;;
76953;SDS011;65893;51.698;-0.292;2024-03-22T04:09:43;17.05;;;6.88;;
76953;SDS011;65893;51.698;-0.292;2024-03-22T04:12:09;14.02;;;5.78;;
76953;SDS011;65893;51.698;-0.292;2024-03-22T04:14:36;10.60;;;4.75;;
76953;SDS011;65893;51.698;-0.292;2024-03-22T04:17:03;13.80;;;5.53;;
76953;SDS011;65893;51.698;-0.292;2024-03-22T04:19:29;13.82;;;6.65;;
76953;SDS011;65893;51.698;-0.292;2024-03-22T04:21:55;12.35;;;6.07;;
76953;SDS011;65893;51.698;-0.292;2024-03-22T04:24:21;11.40;;;5.03;;
76953;SDS011;65893;51.698;-0.292;2024-03-22T04:26:47;13.15;;;6.32;;
76953;SDS011;65893;51.698;-0.292;2024-03-22T04:29:13;14.82;;;6.07;;
76953;SDS011;65893;51.698;-0.292;2024-03-22T04:31:39;11.98;;;5.80;;
76953;SDS011;65893;51.698;-0.292;2024-03-22T04:34:06;13.70;;;5.90;;
76953;SDS011;65893;51.698;-0.292;2024-03-22T04:36:32;11.27;;;5.22;;
76953;SDS011;65893;51.698;-0.292;2024-03-22T04:38:58;13.38;;;5.90;;
76953;SDS011;65893;51.698;-0.292;2024-03-22T04:41:25;18.67;;;7.25;;
76953;SDS011;65893;51.698;-0.292;2024-03-22T04:43:51;12.93;;;6.47;;
76953;SDS011;65893;51.698;-0.292;2024-03-22T04:46:17;12.00;;;5.28;;
76953;SDS011;65893;51.698;-0.292;2024-03-22T04:48:43;12.70;;;5.68;;
76953;SDS011;65893;51.698;-0.292;2024-03-22T04:51:09;13.57;;;5.45;;
76953;SDS011;65893;51.698;-0.292;2024-03-22T04:53:35;10.95;;;5.20;;
76953;SDS011;65893;51.698;-0.292;2024-03-22T04:56:01;11.38;;;5.15;;
76953;SDS011;65893;51.698;-0.292;2024-03-22T04:58:27;12.23;;;6.20;;
76953;SDS011;65893;51.698;-0.292;2024-03-22T05:00:57;13.23;;;5.32;;
76953;SDS011;65893;51.698;-0.292;2024-03-22T05:03:23;11.00;;;4.90;;
76953;SDS011;65893;51.698;-0.292;2024-03-22T05:05:50;11.32;;;5.38;;
76953;SDS011;65893;51.698;-0.292;2024-03-22T05:08:16;11.65;;;5.45;;
76953;SDS011;65893;51.698;-0.292;2024-03-22T05:10:42;11.73;;;5.50;;
76953;SDS011;65893;51.698;-0.292;2024-03-22T05:13:08;13.02;;;5.50;;
76953;SDS011;65893;51.698;-0.292;2024-03-22T05:15:36;11.10;;;6.13;;
76953;SDS011;65893;51.698;-0.292;2024-03-22T05:18:02;10.15;;;4.95;;
76953;SDS011;65893;51.698;-0.292;2024-03-22T05:20:28;13.88;;;4.75;;
76953;SDS011;65893;51.698;-0.292;2024-03-22T05:22:54;11.75;;;4.88;;
76953;SDS011;65893;51.698;-0.292;2024-03-22T05:25:20;7.78;;;4.32;;
76953;SDS011;65893;51.698;-0.292;2024-03-22T05:27:46;11.23;;;4.35;;
76953;SDS011;65893;51.698;-0.292;2024-03-22T05:30:12;10.23;;;3.80;;
76953;SDS011;65893;51.698;-0.292;2024-03-22T05:32:39;10.25;;;3.58;;
76953;SDS011;65893;51.698;-0.292;2024-03-22T05:35:05;9.23;;;3.95;;
76953;SDS011;65893;51.698;-0.292;2024-03-22T05:37:32;9.95;;;4.53;;
76953;SDS011;65893;51.698;-0.292;2024-03-22T05:39:59;8.43;;;3.70;;
76953;SDS011;65893;51.698;-0.292;2024-03-22T05:42:26;11.23;;;3.80;;
76953;SDS011;65893;51.698;-0.292;2024-03-22T05:44:53;7.63;;;3.13;;
76953;SDS011;65893;51.698;-0.292;2024-03-22T05:47:19;7.38;;;3.35;;
76953;SDS011;65893;51.698;-0.292;2024-03-22T05:49:46;7.85;;;3.70;;
76953;SDS011;65893;51.698;-0.292;2024-03-22T05:52:12;8.07;;;3.40;;
76953;SDS011;65893;51.698;-0.292;2024-03-22T05:54:38;11.25;;;4.05;;
76953;SDS011;65893;51.698;-0.292;2024-03-22T05:57:04;8.63;;;3.20;;
76953;SDS011;65893;51.698;-0.292;2024-03-22T05:59:31;7.70;;;3.63;;
76953;SDS011;65893;51.698;-0.292;2024-03-22T06:01:58;9.73;;;2.92;;
76953;SDS011;65893;51.698;-0.292;2024-03-22T06:04:24;7.18;;;2.97;;
76953;SDS011;65893;51.698;-0.292;2024-03-22T06:06:50;7.93;;;3.20;;
76953;SDS011;65893;51.698;-0.292;2024-03-22T06:09:17;7.38;;;3.03;;
76953;SDS011;65893;51.698;-0.292;2024-03-22T06:11:52;7.60;;;2.60;;
76953;SDS011;65893;51.698;-0.292;2024-03-22T06:14:20;10.43;;;2.97;;
76953;SDS011;65893;51.698;-0.292;2024-03-22T06:16:46;7.45;;;2.92;;
76953;SDS011;65893;51.698;-0.292;2024-03-22T06:19:14;8.63;;;2.88;;
76953;SDS011;65893;51.698;-0.292;2024-03-22T06:21:40;7.47;;;3.28;;
76953;SDS011;65893;51.698;-0.292;2024-03-22T06:24:06;8.73;;;3.53;;
76953;SDS011;65893;51.698;-0.292;2024-03-22T06:26:32;8.07;;;2.95;;
76953;SDS011;65893;51.698;-0.292;2024-03-22T06:28:58;9.52;;;3.30;;
76953;SDS011;65893;51.698;-0.292;2024-03-22T06:31:24;7.38;;;2.97;;
76953;SDS011;65893;51.698;-0.292;2024-03-22T06:33:50;7.93;;;3.35;;
76953;SDS011;65893;51.698;-0.292;2024-03-22T06:36:19;6.25;;;2.78;;
76953;SDS011;65893;51.698;-0.292;2024-03-22T06:38:44;10.60;;;2.85;;
76953;SDS011;65893;51.698;-0.292;2024-03-22T06:41:11;6.72;;;2.85;;
76953;SDS011;65893;51.698;-0.292;2024-03-22T06:43:37;7.22;;;3.05;;
76953;SDS011;65893;51.698;-0.292;2024-03-22T06:46:03;9.13;;;3.08;;
76953;SDS011;65893;51.698;-0.292;2024-03-22T06:48:31;8.15;;;3.33;;
76953;SDS011;65893;51.698;-0.292;2024-03-22T06:50:57;9.20;;;3.30;;
76953;SDS011;65893;51.698;-0.292;2024-03-22T06:53:23;7.85;;;2.63;;
76953;SDS011;65893;51.698;-0.292;2024-03-22T06:55:49;7.03;;;2.88;;
76953;SDS011;65893;51.698;-0.292;2024-03-22T06:58:15;8.45;;;3.33;;
76953;SDS011;65893;51.698;-0.292;2024-03-22T07:00:41;10.55;;;2.70;;
76953;SDS011;65893;51.698;-0.292;2024-03-22T07:03:07;7.20;;;2.83;;
76953;SDS011;65893;51.698;-0.292;2024-03-22T07:05:33;8.70;;;3.00;;
76953;SDS011;65893;51.698;-0.292;2024-03-22T07:08:01;13.65;;;3.85;;
76953;SDS011;65893;51.698;-0.292;2024-03-22T07:10:27;8.82;;;3.13;;
76953;SDS011;65893;51.698;-0.292;2024-03-22T07:12:54;9.75;;;4.38;;
76953;SDS011;65893;51.698;-0.292;2024-03-22T07:15:22;10.55;;;3.65;;
76953;SDS011;65893;51.698;-0.292;2024-03-22T07:17:48;9.77;;;3.95;;
76953;SDS011;65893;51.698;-0.292;2024-03-22T07:20:15;8.73;;;3.75;;
76953;SDS011;65893;51.698;-0.292;2024-03-22T07:22:42;7.47;;;3.25;;
76953;SDS011;65893;51.698;-0.292;2024-03-22T07:25:08;9.95;;;3.95;;
76953;SDS011;65893;51.698;-0.292;2024-03-22T07:27:35;9.38;;;4.10;;
76953;SDS011;65893;51.698;-0.292;2024-03-22T07:30:01;10.13;;;3.92;;
76953;SDS011;65893;51.698;-0.292;2024-03-22T07:32:29;10.98;;;3.90;;
76953;SDS011;65893;51.698;-0.292;2024-03-22T07:34:57;9.48;;;4.30;;
76953;SDS011;65893;51.698;-0.292;2024-03-22T07:37:23;15.07;;;6.07;;
76953;SDS011;65893;51.698;-0.292;2024-03-22T07:39:50;13.30;;;6.72;;
76953;SDS011;65893;51.698;-0.292;2024-03-22T07:42:17;13.98;;;5.78;;
76953;SDS011;65893;51.698;-0.292;2024-03-22T07:44:43;14.63;;;6.60;;
76953;SDS011;65893;51.698;-0.292;2024-03-22T07:47:09;15.18;;;6.47;;
76953;SDS011;65893;51.698;-0.292;2024-03-22T07:49:35;13.80;;;6.90;;
76953;SDS011;65893;51.698;-0.292;2024-03-22T07:52:05;19.63;;;7.18;;
76953;SDS011;65893;51.698;-0.292;2024-03-22T07:54:31;15.52;;;6.50;;
76953;SDS011;65893;51.698;-0.292;2024-03-22T07:56:59;16.17;;;6.60;;
76953;SDS011;65893;51.698;-0.292;2024-03-22T07:59:25;19.05;;;7.82;;
76953;SDS011;65893;51.698;-0.292;2024-03-22T08:01:51;16.58;;;7.68;;
76953;SDS011;65893;51.698;-0.292;2024-03-22T08:04:17;15.15;;;6.65;;
76953;SDS011;65893;51.698;-0.292;2024-03-22T08:06:43;15.32;;;6.85;;
76953;SDS011;65893;51.698;-0.292;2024-03-22T08:09:09;18.58;;;7.53;;
76953;SDS011;65893;51.698;-0.292;2024-03-22T08:11:35;19.48;;;7.45;;
76953;SDS011;65893;51.698;-0.292;2024-03-22T08:14:02;14.27;;;6.50;;
76953;SDS011;65893;51.698;-0.292;2024-03-22T08:16:29;17.33;;;7.45;;
76953;SDS011;65893;51.698;-0.292;2024-03-22T08:18:56;16.75;;;7.10;;
76953;SDS011;65893;51.698;-0.292;2024-03-22T08:21:23;17.05;;;6.35;;
76953;SDS011;65893;51.698;-0.292;2024-03-22T08:23:50;15.80;;;6.72;;
76953;SDS011;65893;51.698;-0.292;2024-03-22T08:26:17;13.27;;;6.22;;
76953;SDS011;65893;51.698;-0.292;2024-03-22T08:28:43;16.52;;;6.07;;
76953;SDS011;65893;51.698;-0.292;2024-03-22T08:31:09;13.13;;;4.88;;
76953;SDS011;65893;51.698;-0.292;2024-03-22T08:33:38;12.77;;;5.95;;
76953;SDS011;65893;51.698;-0.292;2024-03-22T08:36:05;13.90;;;6.45;;
76953;SDS011;65893;51.698;-0.292;2024-03-22T08:38:31;13.82;;;6.13;;
76953;SDS011;65893;51.698;-0.292;2024-03-22T08:40:59;13.60;;;6.15;;
76953;SDS011;65893;51.698;-0.292;2024-03-22T08:43:26;17.67;;;6.43;;
76953;SDS011;65893;51.698;-0.292;2024-03-22T08:45:54;15.10;;;6.15;;
76953;SDS011;65893;51.698;-0.292;2024-03-22T08:48:20;12.55;;;5.65;;
76953;SDS011;65893;51.698;-0.292;2024-03-22T08:50:47;14.85;;;6.40;;
76953;SDS011;65893;51.698;-0.292;2024-03-22T08:53:13;12.55;;;5.88;;
76953;SDS011;65893;51.698;-0.292;2024-03-22T08:56:01;10.95;;;5.57;;
76953;SDS011;65893;51.698;-0.292;2024-03-22T08:58:26;12.50;;;5.80;;
76953;SDS011;65893;51.698;-0.292;2024-03-22T09:00:53;13.57;;;5.38;;
76953;SDS011;65893;51.698;-0.292;2024-03-22T09:03:20;12.60;;;5.85;;
76953;SDS011;65893;51.698;-0.292;2024-03-22T09:05:47;14.32;;;5.63;;
76953;SDS011;65893;51.698;-0.292;2024-03-22T09:08:17;16.13;;;6.53;;
76953;SDS011;65893;51.698;-0.292;2024-03-22T09:10:46;12.13;;;5.72;;
76953;SDS011;65893;51.698;-0.292;2024-03-22T09:13:14;12.18;;;5.80;;
76953;SDS011;65893;51.698;-0.292;2024-03-22T09:15:40;11.98;;;6.43;;
76953;SDS011;65893;51.698;-0.292;2024-03-22T09:18:06;14.98;;;6.15;;
76953;SDS011;65893;51.698;-0.292;2024-03-22T09:20:35;11.35;;;5.45;;
76953;SDS011;65893;51.698;-0.292;2024-03-22T09:23:02;15.63;;;6.15;;
76953;SDS011;65893;51.698;-0.292;2024-03-22T09:25:29;9.93;;;5.28;;
76953;SDS011;65893;51.698;-0.292;2024-03-22T09:27:57;11.00;;;5.28;;
76953;SDS011;65893;51.698;-0.292;2024-03-22T09:30:25;11.02;;;5.50;;
76953;SDS011;65893;51.698;-0.292;2024-03-22T09:32:53;8.98;;;4.50;;
76953;SDS011;65893;51.698;-0.292;2024-03-22T09:35:19;10.48;;;4.72;;
76953;SDS011;65893;51.698;-0.292;2024-03-22T09:37:46;9.70;;;4.20;;
76953;SDS011;65893;51.698;-0.292;2024-03-22T09:40:12;11.43;;;3.75;;
76953;SDS011;65893;51.698;-0.292;2024-03-22T09:42:39;10.07;;;4.13;;
76953;SDS011;65893;51.698;-0.292;2024-03-22T09:45:09;9.27;;;4.00;;
76953;SDS011;65893;51.698;-0.292;2024-03-22T09:47:38;10.68;;;4.72;;
76953;SDS011;65893;51.698;-0.292;2024-03-22T09:50:07;7.97;;;2.92;;
76953;SDS011;65893;51.698;-0.292;2024-03-22T09:52:37;9.07;;;2.88;;
76953;SDS011;65893;51.698;-0.292;2024-03-22T09:55:06;6.90;;;2.53;;
76953;SDS011;65893;51.698;-0.292;2024-03-22T09:57:34;6.13;;;1.75;;
76953;SDS011;65893;51.698;-0.292;2024-03-22T10:00:01;6.22;;;1.88;;
76953;SDS011;65893;51.698;-0.292;2024-03-22T10:02:27;7.70;;;1.95;;
76953;SDS011;65893;51.698;-0.292;2024-03-22T10:04:56;5.75;;;1.20;;
76953;SDS011;65893;51.698;-0.292;2024-03-22T10:07:25;8.23;;;1.25;;
76953;SDS011;65893;51.698;-0.292;2024-03-22T10:09:51;8.18;;;1.48;;
76953;SDS011;65893;51.698;-0.292;2024-03-22T10:12:17;5.47;;;1.10;;
76953;SDS011;65893;51.698;-0.292;2024-03-22T10:14:45;3.47;;;0.98;;
76953;SDS011;65893;51.698;-0.292;2024-03-22T10:17:11;8.73;;;1.23;;
76953;SDS011;65893;51.698;-0.292;2024-03-22T10:19:38;5.65;;;1.75;;
76953;SDS011;65893;51.698;-0.292;2024-03-22T10:22:06;7.28;;;1.63;;
76953;SDS011;65893;51.698;-0.292;2024-03-22T10:24:32;6.30;;;1.95;;
76953;SDS011;65893;51.698;-0.292;2024-03-22T10:26:58;7.07;;;1.48;;
76953;SDS011;65893;51.698;-0.292;2024-03-22T10:29:24;10.48;;;1.70;;
76953;SDS011;65893;51.698;-0.292;2024-03-22T10:31:54;13.60;;;3.63;;
76953;SDS011;65893;51.698;-0.292;2024-03-22T10:34:21;5.28;;;1.30;;
76953;SDS011;65893;51.698;-0.292;2024-03-22T10:36:48;9.82;;;1.83;;
76953;SDS011;65893;51.698;-0.292;2024-03-22T10:39:16;7.85;;;1.27;;
76953;SDS011;65893;51.698;-0.292;2024-03-22T10:41:46;11.40;;;1.98;;
76953;SDS011;65893;51.698;-0.292;2024-03-22T10:44:13;15.05;;;2.53;;
76953;SDS011;65893;51.698;-0.292;2024-03-22T10:46:42;13.27;;;2.58;;
76953;SDS011;65893;51.698;-0.292;2024-03-22T10:49:16;11.88;;;2.40;;
76953;SDS011;65893;51.698;-0.292;2024-03-22T10:51:48;9.25;;;1.63;;
76953;SDS011;65893;51.698;-0.292;2024-03-22T10:54:21;11.27;;;1.75;;
76953;SDS011;65893;51.698;-0.292;2024-03-22T10:56:48;11.00;;;2.15;;
76953;SDS011;65893;51.698;-0.292;2024-03-22T10:59:24;14.77;;;2.58;;
76953;SDS011;65893;51.698;-0.292;2024-03-22T11:01:50;18.70;;;2.50;;
76953;SDS011;65893;51.698;-0.292;2024-03-22T11:04:21;17.10;;;2.40;;
76953;SDS011;65893;51.698;-0.292;2024-03-22T11:06:51;16.00;;;2.00;;
76953;SDS011;65893;51.698;-0.292;2024-03-22T11:09:27;8.45;;;1.55;;
76953;SDS011;65893;51.698;-0.292;2024-03-22T11:11:53;8.25;;;1.60;;
76953;SDS011;65893;51.698;-0.292;2024-03-22T11:14:26;15.88;;;2.53;;
76953;SDS011;65893;51.698;-0.292;2024-03-22T11:16:53;12.70;;;1.98;;
76953;SDS011;65893;51.698;-0.292;2024-03-22T11:19:21;10.30;;;2.17;;
76953;SDS011;65893;51.698;-0.292;2024-03-22T11:21:48;12.30;;;2.05;;
76953;SDS011;65893;51.698;-0.292;2024-03-22T11:24:15;13.15;;;2.38;;
76953;SDS011;65893;51.698;-0.292;2024-03-22T11:26:41;13.90;;;1.98;;
76953;SDS011;65893;51.698;-0.292;2024-03-22T11:29:09;12.80;;;1.95;;
76953;SDS011;65893;51.698;-0.292;2024-03-22T11:31:36;14.18;;;2.38;;
76953;SDS011;65893;51.698;-0.292;2024-03-22T11:34:03;9.30;;;1.83;;
76953;SDS011;65893;51.698;-0.292;2024-03-22T11:36:29;14.32;;;2.42;;
76953;SDS011;65893;51.698;-0.292;2024-03-22T11:38:56;8.60;;;1.85;;
76953;SDS011;65893;51.698;-0.292;2024-03-22T11:41:24;7.63;;;1.48;;
76953;SDS011;65893;51.698;-0.292;2024-03-22T11:43:52;8.88;;;1.80;;
76953;SDS011;65893;51.698;-0.292;2024-03-22T11:46:19;15.23;;;2.65;;
76953;SDS011;65893;51.698;-0.292;2024-03-22T11:48:50;12.50;;;2.05;;
76953;SDS011;65893;51.698;-0.292;2024-03-22T11:51:17;8.73;;;1.58;;
76953;SDS011;65893;51.698;-0.292;2024-03-22T11:53:51;8.85;;;1.90;;
76953;SDS011;65893;51.698;-0.292;2024-03-22T11:56:19;11.73;;;1.60;;
76953;SDS011;65893;51.698;-0.292;2024-03-22T11:58:48;11.88;;;1.77;;
76953;SDS011;65893;51.698;-0.292;2024-03-22T12:01:17;8.25;;;1.50;;
76953;SDS011;65893;51.698;-0.292;2024-03-22T12:03:48;8.02;;;1.42;;
76953;SDS011;65893;51.698;-0.292;2024-03-22T12:06:17;14.20;;;2.25;;
76953;SDS011;65893;51.698;-0.292;2024-03-22T12:08:43;12.45;;;1.50;;
76953;SDS011;65893;51.698;-0.292;2024-03-22T12:11:10;8.30;;;1.50;;
76953;SDS011;65893;51.698;-0.292;2024-03-22T12:13:37;11.00;;;1.58;;
76953;SDS011;65893;51.698;-0.292;2024-03-22T12:16:04;8.10;;;1.80;;
76953;SDS011;65893;51.698;-0.292;2024-03-22T12:18:31;17.80;;;2.47;;
76953;SDS011;65893;51.698;-0.292;2024-03-22T12:20:59;14.25;;;1.77;;
76953;SDS011;65893;51.698;-0.292;2024-03-22T12:23:25;10.98;;;1.83;;
76953;SDS011;65893;51.698;-0.292;2024-03-22T12:25:52;9.95;;;1.75;;
76953;SDS011;65893;51.698;-0.292;2024-03-22T12:28:18;14.68;;;1.95;;
76953;SDS011;65893;51.698;-0.292;2024-03-22T12:30:44;14.80;;;2.45;;
76953;SDS011;65893;51.698;-0.292;2024-03-22T12:33:11;7.85;;;1.55;;
76953;SDS011;65893;51.698;-0.292;2024-03-22T12:35:39;8.80;;;1.92;;
76953;SDS011;65893;51.698;-0.292;2024-03-22T12:38:05;12.55;;;2.05;;
76953;SDS011;65893;51.698;-0.292;2024-03-22T12:40:33;10.55;;;2.28;;
76953;SDS011;65893;51.698;-0.292;2024-03-22T12:43:01;18.70;;;1.92;;
76953;SDS011;65893;51.698;-0.292;2024-03-22T12:45:27;11.68;;;2.20;;
76953;SDS011;65893;51.698;-0.292;2024-03-22T12:47:53;13.25;;;3.75;;
76953;SDS011;65893;51.698;-0.292;2024-03-22T12:50:19;10.95;;;1.95;;
76953;SDS011;65893;51.698;-0.292;2024-03-22T12:52:45;11.23;;;2.25;;
76953;SDS011;65893;51.698;-0.292;2024-03-22T12:55:11;14.77;;;2.22;;
76953;SDS011;65893;51.698;-0.292;2024-03-22T12:57:37;16.15;;;2.08;;
76953;SDS011;65893;51.698;-0.292;2024-03-22T13:00:05;13.40;;;2.33;;
76953;SDS011;65893;51.698;-0.292;2024-03-22T13:02:37;17.48;;;3.22;;
76953;SDS011;65893;51.698;-0.292;2024-03-22T13:05:04;12.80;;;2.08;;
76953;SDS011;65893;51.698;-0.292;2024-03-22T13:07:31;10.18;;;2.13;;
76953;SDS011;65893;51.698;-0.292;2024-03-22T13:09:57;12.85;;;2.45;;
76953;SDS011;65893;51.698;-0.292;2024-03-22T13:12:26;9.30;;;2.10;;
76953;SDS011;65893;51.698;-0.292;2024-03-22T13:14:53;17.48;;;2.28;;
76953;SDS011;65893;51.698;-0.292;2024-03-22T13:17:20;13.65;;;3.33;;
76953;SDS011;65893;51.698;-0.292;2024-03-22T13:19:46;12.35;;;2.08;;
76953;SDS011;65893;51.698;-0.292;2024-03-22T13:22:12;14.25;;;2.05;;
76953;SDS011;65893;51.698;-0.292;2024-03-22T13:24:39;11.82;;;1.75;;
76953;SDS011;65893;51.698;-0.292;2024-03-22T13:27:05;14.27;;;2.55;;
76953;SDS011;65893;51.698;-0.292;2024-03-22T13:29:34;9.80;;;2.05;;
76953;SDS011;65893;51.698;-0.292;2024-03-22T13:32:00;12.07;;;2.60;;
76953;SDS011;65893;51.698;-0.292;2024-03-22T13:34:26;11.90;;;2.45;;
76953;SDS011;65893;51.698;-0.292;2024-03-22T13:36:53;12.43;;;2.35;;
76953;SDS011;65893;51.698;-0.292;2024-03-22T13:39:21;8.68;;;2.13;;
76953;SDS011;65893;51.698;-0.292;2024-03-22T13:41:48;12.73;;;2.15;;
76953;SDS011;65893;51.698;-0.292;2024-03-22T13:44:14;12.65;;;1.75;;
76953;SDS011;65893;51.698;-0.292;2024-03-22T13:46:40;10.13;;;1.88;;
76953;SDS011;65893;51.698;-0.292;2024-03-22T13:49:13;8.70;;;1.75;;
76953;SDS011;65893;51.698;-0.292;2024-03-22T13:51:43;11.57;;;2.85;;
76953;SDS011;65893;51.698;-0.292;2024-03-22T13:54:11;11.20;;;1.83;;
76953;SDS011;65893;51.698;-0.292;2024-03-22T13:56:38;15.68;;;2.55;;
76953;SDS011;65893;51.698;-0.292;2024-03-22T13:59:05;11.98;;;2.15;;
76953;SDS011;65893;51.698;-0.292;2024-03-22T14:01:32;14.13;;;3.03;;
76953;SDS011;65893;51.698;-0.292;2024-03-22T14:03:59;11.23;;;2.92;;
76953;SDS011;65893;51.698;-0.292;2024-03-22T14:06:25;14.48;;;2.05;;
76953;SDS011;65893;51.698;-0.292;2024-03-22T14:08:52;11.35;;;1.88;;
76953;SDS011;65893;51.698;-0.292;2024-03-22T14:11:25;13.90;;;1.80;;
76953;SDS011;65893;51.698;-0.292;2024-03-22T14:13:52;21.13;;;2.33;;
76953;SDS011;65893;51.698;-0.292;2024-03-22T14:16:18;12.05;;;1.83;;
76953;SDS011;65893;51.698;-0.292;2024-03-22T14:18:46;16.70;;;3.50;;
76953;SDS011;65893;51.698;-0.292;2024-03-22T14:21:14;18.77;;;3.13;;